sensor_id;sensor_type;location;lat;lon;timestamp;pressure;altitude;pressure_sealevel;temperature;humidity
11395;BME280;5753;54.402;10.220;2023-02-21T00:01:56;101159.34;;;12.32;95.19
11395;BME280;5753;54.402;10.220;2023-02-21T00:04:42;101174.00;;;11.79;98.74
11395;BME280;5753;54.402;10.220;2023-02-21T00:07:27;101169.94;;;11.93;99.55
11395;BME280;5753;54.402;10.220;2023-02-21T00:10:13;101170.56;;;13.05;92.36
11395;BME280;5753;54.402;10.220;2023-02-21T00:12:59;101164.97;;;14.66;78.85
11395;BME280;5753;54.402;10.220;2023-02-21T00:15:44;101162.56;;;13.67;85.36
11395;BME280;5753;54.402;10.220;2023-02-21T00:18:32;101162.22;;;13.25;89.00
11395;BME280;5753;54.402;10.220;2023-02-21T00:21:16;101161.91;;;13.00;86.82
11395;BME280;5753;54.402;10.220;2023-02-21T00:24:01;101158.81;;;13.32;83.14
11395;BME280;5753;54.402;10.220;2023-02-21T00:26:46;101169.47;;;13.65;82.37
11395;BME280;5753;54.402;10.220;2023-02-21T00:29:31;101163.59;;;12.98;85.58
11395;BME280;5753;54.402;10.220;2023-02-21T00:32:16;101174.47;;;13.44;81.59
11395;BME280;5753;54.402;10.220;2023-02-21T00:35:01;101175.28;;;12.66;84.54
11395;BME280;5753;54.402;10.220;2023-02-21T00:37:52;101170.44;;;13.73;79.63
11395;BME280;5753;54.402;10.220;2023-02-21T00:40:39;101181.88;;;13.15;82.96
11395;BME280;5753;54.402;10.220;2023-02-21T00:43:32;101177.63;;;14.15;75.14
11395;BME280;5753;54.402;10.220;2023-02-21T00:46:17;101176.59;;;13.89;74.89
11395;BME280;5753;54.402;10.220;2023-02-21T00:49:03;101184.28;;;12.95;80.82
11395;BME280;5753;54.402;10.220;2023-02-21T00:51:48;101186.16;;;13.11;79.05
11395;BME280;5753;54.402;10.220;2023-02-21T00:54:33;101205.59;;;14.62;70.57
11395;BME280;5753;54.402;10.220;2023-02-21T00:57:18;101197.72;;;14.42;70.20
11395;BME280;5753;54.402;10.220;2023-02-21T01:00:04;101197.94;;;13.64;72.31
11395;BME280;5753;54.402;10.220;2023-02-21T01:02:49;101190.53;;;14.06;69.26
11395;BME280;5753;54.402;10.220;2023-02-21T01:05:34;101188.16;;;14.37;68.58
11395;BME280;5753;54.402;10.220;2023-02-21T01:08:19;101194.34;;;14.59;67.48
11395;BME280;5753;54.402;10.220;2023-02-21T01:11:03;101189.50;;;13.81;69.83
11395;BME280;5753;54.402;10.220;2023-02-21T01:13:48;101197.31;;;13.86;69.29
11395;BME280;5753;54.402;10.220;2023-02-21T01:16:33;101186.38;;;14.27;66.52
11395;BME280;5753;54.402;10.220;2023-02-21T01:19:18;101196.44;;;13.87;67.79
11395;BME280;5753;54.402;10.220;2023-02-21T01:22:03;101193.91;;;13.08;69.88
11395;BME280;5753;54.402;10.220;2023-02-21T01:24:49;101200.09;;;14.18;65.00
11395;BME280;5753;54.402;10.220;2023-02-21T01:27:34;101202.84;;;13.32;68.90
11395;BME280;5753;54.402;10.220;2023-02-21T01:30:19;101204.38;;;14.10;64.93
11395;BME280;5753;54.402;10.220;2023-02-21T01:33:03;101201.28;;;13.49;66.58
11395;BME280;5753;54.402;10.220;2023-02-21T01:35:48;101202.19;;;13.54;66.12
11395;BME280;5753;54.402;10.220;2023-02-21T01:38:36;101203.19;;;12.29;71.34
11395;BME280;5753;54.402;10.220;2023-02-21T01:41:20;101197.34;;;11.83;75.73
11395;BME280;5753;54.402;10.220;2023-02-21T01:44:26;101185.97;;;11.75;78.77
11395;BME280;5753;54.402;10.220;2023-02-21T01:47:12;101183.03;;;11.54;83.49
11395;BME280;5753;54.402;10.220;2023-02-21T01:49:58;101186.91;;;11.79;81.37
11395;BME280;5753;54.402;10.220;2023-02-21T01:52:45;101173.38;;;11.44;86.77
11395;BME280;5753;54.402;10.220;2023-02-21T01:55:32;101186.84;;;11.27;92.58
11395;BME280;5753;54.402;10.220;2023-02-21T01:58:20;101191.94;;;11.24;93.27
11395;BME280;5753;54.402;10.220;2023-02-21T02:01:11;101181.91;;;11.88;90.63
11395;BME280;5753;54.402;10.220;2023-02-21T02:04:00;101177.13;;;12.12;88.84
11395;BME280;5753;54.402;10.220;2023-02-21T02:06:45;101191.84;;;11.20;93.88
11395;BME280;5753;54.402;10.220;2023-02-21T02:09:30;101182.09;;;11.49;94.52
11395;BME280;5753;54.402;10.220;2023-02-21T02:34:32;101165.28;;;11.25;99.69
11395;BME280;5753;54.402;10.220;2023-02-21T02:39:50;101173.53;;;11.53;100.00
11395;BME280;5753;54.402;10.220;2023-02-21T02:45:05;101163.84;;;10.93;100.00
11395;BME280;5753;54.402;10.220;2023-02-21T02:47:36;101165.50;;;11.84;98.10
11395;BME280;5753;54.402;10.220;2023-02-21T02:50:05;101174.53;;;11.13;96.89
11395;BME280;5753;54.402;10.220;2023-02-21T02:52:35;101166.47;;;10.96;100.00
11395;BME280;5753;54.402;10.220;2023-02-21T02:57:46;101162.47;;;12.13;91.15
11395;BME280;5753;54.402;10.220;2023-02-21T03:00:14;101170.84;;;11.00;99.44
11395;BME280;5753;54.402;10.220;2023-02-21T03:05:37;101170.66;;;12.42;85.19
11395;BME280;5753;54.402;10.220;2023-02-21T03:10:57;101169.53;;;11.72;87.35
11395;BME280;5753;54.402;10.220;2023-02-21T03:13:42;101167.94;;;12.31;85.38
11395;BME280;5753;54.402;10.220;2023-02-21T03:16:34;101178.28;;;12.31;81.48
11395;BME280;5753;54.402;10.220;2023-02-21T03:19:06;101176.03;;;11.96;84.70
11395;BME280;5753;54.402;10.220;2023-02-21T03:21:45;101181.69;;;11.29;91.00
11395;BME280;5753;54.402;10.220;2023-02-21T03:24:13;101176.78;;;13.19;77.67
11395;BME280;5753;54.402;10.220;2023-02-21T03:26:45;101177.13;;;12.14;81.77
11395;BME280;5753;54.402;10.220;2023-02-21T03:29:14;101170.59;;;11.81;83.90
11395;BME280;5753;54.402;10.220;2023-02-21T03:31:57;101192.56;;;12.08;83.47
11395;BME280;5753;54.402;10.220;2023-02-21T03:34:25;101180.28;;;12.53;79.42
11395;BME280;5753;54.402;10.220;2023-02-21T03:36:51;101183.25;;;12.19;80.31
11395;BME280;5753;54.402;10.220;2023-02-21T03:39:18;101186.72;;;12.21;81.50
11395;BME280;5753;54.402;10.220;2023-02-21T03:41:44;101190.78;;;12.05;81.73
11395;BME280;5753;54.402;10.220;2023-02-21T03:44:10;101188.28;;;12.10;81.36
11395;BME280;5753;54.402;10.220;2023-02-21T03:46:36;101189.03;;;13.31;74.69
11395;BME280;5753;54.402;10.220;2023-02-21T03:49:02;101190.97;;;12.78;74.96
11395;BME280;5753;54.402;10.220;2023-02-21T03:51:28;101193.03;;;13.09;74.08
11395;BME280;5753;54.402;10.220;2023-02-21T03:53:54;101194.78;;;13.09;74.17
11395;BME280;5753;54.402;10.220;2023-02-21T03:56:21;101197.63;;;12.62;74.84
11395;BME280;5753;54.402;10.220;2023-02-21T03:58:47;101200.56;;;12.88;75.57
11395;BME280;5753;54.402;10.220;2023-02-21T04:01:14;101205.47;;;13.38;73.05
11395;BME280;5753;54.402;10.220;2023-02-21T04:03:41;101210.97;;;13.71;70.00
11395;BME280;5753;54.402;10.220;2023-02-21T04:06:07;101215.72;;;13.26;71.33
11395;BME280;5753;54.402;10.220;2023-02-21T04:08:33;101220.06;;;13.30;70.87
11395;BME280;5753;54.402;10.220;2023-02-21T04:10:59;101225.50;;;13.55;69.86
11395;BME280;5753;54.402;10.220;2023-02-21T04:13:25;101215.25;;;12.89;72.56
11395;BME280;5753;54.402;10.220;2023-02-21T04:15:52;101205.31;;;12.56;75.06
11395;BME280;5753;54.402;10.220;2023-02-21T04:18:18;101204.44;;;12.55;72.29
11395;BME280;5753;54.402;10.220;2023-02-21T04:20:44;101211.31;;;11.96;74.24
11395;BME280;5753;54.402;10.220;2023-02-21T04:23:15;101204.50;;;12.58;72.95
11395;BME280;5753;54.402;10.220;2023-02-21T04:25:41;101216.44;;;11.93;75.31
11395;BME280;5753;54.402;10.220;2023-02-21T04:28:07;101206.91;;;12.46;73.21
11395;BME280;5753;54.402;10.220;2023-02-21T04:30:34;101214.53;;;13.01;71.87
11395;BME280;5753;54.402;10.220;2023-02-21T04:33:00;101208.47;;;12.34;75.45
11395;BME280;5753;54.402;10.220;2023-02-21T04:35:26;101214.38;;;12.28;75.71
11395;BME280;5753;54.402;10.220;2023-02-21T04:37:52;101213.75;;;13.93;67.54
11395;BME280;5753;54.402;10.220;2023-02-21T04:40:18;101220.31;;;12.81;69.27
11395;BME280;5753;54.402;10.220;2023-02-21T04:42:44;101223.03;;;13.69;67.37
11395;BME280;5753;54.402;10.220;2023-02-21T04:45:11;101223.38;;;13.18;68.35
11395;BME280;5753;54.402;10.220;2023-02-21T04:47:37;101229.41;;;12.53;72.48
11395;BME280;5753;54.402;10.220;2023-02-21T04:50:03;101227.59;;;13.14;68.63
11395;BME280;5753;54.402;10.220;2023-02-21T04:52:30;101227.16;;;12.19;72.86
11395;BME280;5753;54.402;10.220;2023-02-21T04:54:56;101223.09;;;12.33;72.91
11395;BME280;5753;54.402;10.220;2023-02-21T04:57:22;101214.88;;;12.61;72.04
11395;BME280;5753;54.402;10.220;2023-02-21T04:59:54;101216.28;;;13.05;70.08
11395;BME280;5753;54.402;10.220;2023-02-21T05:02:20;101221.41;;;13.77;65.52
11395;BME280;5753;54.402;10.220;2023-02-21T05:04:46;101227.69;;;12.52;69.88
11395;BME280;5753;54.402;10.220;2023-02-21T05:07:12;101235.06;;;13.61;65.04
11395;BME280;5753;54.402;10.220;2023-02-21T05:09:39;101237.38;;;12.69;69.61
11395;BME280;5753;54.402;10.220;2023-02-21T05:12:05;101246.59;;;13.92;63.59
11395;BME280;5753;54.402;10.220;2023-02-21T05:14:37;101255.16;;;13.09;65.96
11395;BME280;5753;54.402;10.220;2023-02-21T05:17:04;101258.25;;;12.81;66.62
11395;BME280;5753;54.402;10.220;2023-02-21T05:19:31;101260.25;;;13.02;66.14
11395;BME280;5753;54.402;10.220;2023-02-21T05:21:59;101270.13;;;12.12;69.51
11395;BME280;5753;54.402;10.220;2023-02-21T05:24:27;101262.19;;;14.00;62.83
11395;BME280;5753;54.402;10.220;2023-02-21T05:26:53;101265.59;;;13.15;64.26
11395;BME280;5753;54.402;10.220;2023-02-21T05:29:20;101273.97;;;12.36;67.65
11395;BME280;5753;54.402;10.220;2023-02-21T05:31:47;101263.84;;;13.16;64.67
11395;BME280;5753;54.402;10.220;2023-02-21T05:34:14;101265.19;;;12.27;66.99
11395;BME280;5753;54.402;10.220;2023-02-21T05:36:41;101267.13;;;12.38;67.65
11395;BME280;5753;54.402;10.220;2023-02-21T05:39:08;101270.19;;;12.73;65.17
11395;BME280;5753;54.402;10.220;2023-02-21T05:41:34;101269.75;;;13.04;64.70
11395;BME280;5753;54.402;10.220;2023-02-21T05:44:01;101284.41;;;13.02;63.37
11395;BME280;5753;54.402;10.220;2023-02-21T05:46:30;101280.22;;;13.13;63.15
11395;BME280;5753;54.402;10.220;2023-02-21T05:49:00;101282.69;;;13.04;64.06
11395;BME280;5753;54.402;10.220;2023-02-21T05:51:32;101286.41;;;14.03;61.81
11395;BME280;5753;54.402;10.220;2023-02-21T05:53:59;101297.50;;;12.52;66.54
11395;BME280;5753;54.402;10.220;2023-02-21T05:56:25;101288.63;;;13.67;61.74
11395;BME280;5753;54.402;10.220;2023-02-21T05:58:51;101289.03;;;14.06;61.31
11395;BME280;5753;54.402;10.220;2023-02-21T06:01:18;101287.78;;;12.36;66.60
11395;BME280;5753;54.402;10.220;2023-02-21T06:03:44;101288.22;;;13.29;63.59
11395;BME280;5753;54.402;10.220;2023-02-21T06:06:10;101292.44;;;14.01;61.74
11395;BME280;5753;54.402;10.220;2023-02-21T06:08:47;101300.06;;;12.51;66.72
11395;BME280;5753;54.402;10.220;2023-02-21T06:11:14;101306.69;;;11.40;72.11
11395;BME280;5753;54.402;10.220;2023-02-21T06:13:41;101309.16;;;11.79;72.49
11395;BME280;5753;54.402;10.220;2023-02-21T06:16:07;101300.84;;;13.06;66.25
11395;BME280;5753;54.402;10.220;2023-02-21T06:18:34;101317.50;;;12.66;69.12
11395;BME280;5753;54.402;10.220;2023-02-21T06:21:00;101302.69;;;12.54;68.60
11395;BME280;5753;54.402;10.220;2023-02-21T06:23:26;101305.16;;;12.46;69.48
11395;BME280;5753;54.402;10.220;2023-02-21T06:25:52;101305.38;;;11.62;73.13
11395;BME280;5753;54.402;10.220;2023-02-21T06:28:18;101310.72;;;12.18;71.55
11395;BME280;5753;54.402;10.220;2023-02-21T06:30:44;101309.03;;;11.75;71.40
11395;BME280;5753;54.402;10.220;2023-02-21T06:33:11;101317.00;;;12.88;68.37
11395;BME280;5753;54.402;10.220;2023-02-21T06:35:37;101314.75;;;12.53;69.46
11395;BME280;5753;54.402;10.220;2023-02-21T06:38:03;101321.44;;;11.91;70.99
11395;BME280;5753;54.402;10.220;2023-02-21T06:40:29;101317.06;;;12.94;68.55
11395;BME280;5753;54.402;10.220;2023-02-21T06:42:55;101320.69;;;13.73;65.16
11395;BME280;5753;54.402;10.220;2023-02-21T06:45:22;101326.34;;;12.78;66.62
11395;BME280;5753;54.402;10.220;2023-02-21T06:47:48;101327.78;;;13.91;64.09
11395;BME280;5753;54.402;10.220;2023-02-21T06:50:14;101331.81;;;13.66;63.88
11395;BME280;5753;54.402;10.220;2023-02-21T06:52:40;101327.34;;;13.53;63.80
11395;BME280;5753;54.402;10.220;2023-02-21T06:55:07;101332.09;;;12.60;68.40
11395;BME280;5753;54.402;10.220;2023-02-21T06:57:33;101335.50;;;13.88;62.75
11395;BME280;5753;54.402;10.220;2023-02-21T06:59:59;101339.28;;;12.80;66.61
11395;BME280;5753;54.402;10.220;2023-02-21T07:02:25;101333.66;;;13.76;64.62
11395;BME280;5753;54.402;10.220;2023-02-21T07:04:51;101328.09;;;13.43;64.77
11395;BME280;5753;54.402;10.220;2023-02-21T07:07:18;101333.81;;;12.61;67.50
11395;BME280;5753;54.402;10.220;2023-02-21T07:09:44;101326.09;;;13.23;65.70
11395;BME280;5753;54.402;10.220;2023-02-21T07:12:10;101327.69;;;13.14;65.45
11395;BME280;5753;54.402;10.220;2023-02-21T07:14:36;101341.03;;;12.81;67.46
11395;BME280;5753;54.402;10.220;2023-02-21T07:17:02;101329.78;;;12.77;66.52
11395;BME280;5753;54.402;10.220;2023-02-21T07:19:29;101336.34;;;13.16;66.06
11395;BME280;5753;54.402;10.220;2023-02-21T07:21:55;101336.06;;;13.61;64.06
11395;BME280;5753;54.402;10.220;2023-02-21T07:24:21;101337.41;;;13.29;65.58
11395;BME280;5753;54.402;10.220;2023-02-21T07:26:48;101340.88;;;13.29;65.63
11395;BME280;5753;54.402;10.220;2023-02-21T07:29:14;101342.81;;;12.85;66.84
11395;BME280;5753;54.402;10.220;2023-02-21T07:31:40;101344.22;;;14.99;60.23
11395;BME280;5753;54.402;10.220;2023-02-21T07:34:06;101343.06;;;14.58;62.14
11395;BME280;5753;54.402;10.220;2023-02-21T07:36:32;101353.72;;;13.94;62.46
11395;BME280;5753;54.402;10.220;2023-02-21T07:38:58;101345.59;;;14.47;61.39
11395;BME280;5753;54.402;10.220;2023-02-21T07:41:25;101343.19;;;13.79;63.04
11395;BME280;5753;54.402;10.220;2023-02-21T07:43:51;101346.38;;;13.55;63.75
11395;BME280;5753;54.402;10.220;2023-02-21T07:46:17;101352.81;;;13.21;64.02
11395;BME280;5753;54.402;10.220;2023-02-21T07:48:43;101351.56;;;14.41;62.10
11395;BME280;5753;54.402;10.220;2023-02-21T07:51:10;101363.00;;;14.62;60.26
11395;BME280;5753;54.402;10.220;2023-02-21T07:53:36;101367.75;;;15.25;57.86
11395;BME280;5753;54.402;10.220;2023-02-21T07:56:03;101373.72;;;14.09;60.81
11395;BME280;5753;54.402;10.220;2023-02-21T07:58:29;101369.78;;;13.01;64.62
11395;BME280;5753;54.402;10.220;2023-02-21T08:00:57;101380.38;;;13.82;61.71
11395;BME280;5753;54.402;10.220;2023-02-21T08:03:23;101375.72;;;13.55;63.08
11395;BME280;5753;54.402;10.220;2023-02-21T08:05:49;101383.88;;;13.86;62.73
11395;BME280;5753;54.402;10.220;2023-02-21T08:08:15;101387.56;;;14.11;61.26
11395;BME280;5753;54.402;10.220;2023-02-21T08:10:42;101389.34;;;14.15;61.00
11395;BME280;5753;54.402;10.220;2023-02-21T08:13:08;101384.94;;;13.34;64.07
11395;BME280;5753;54.402;10.220;2023-02-21T08:15:34;101386.38;;;13.16;63.33
11395;BME280;5753;54.402;10.220;2023-02-21T08:18:00;101388.16;;;13.17;64.08
11395;BME280;5753;54.402;10.220;2023-02-21T08:20:27;101397.81;;;14.91;60.31
11395;BME280;5753;54.402;10.220;2023-02-21T08:22:53;101404.56;;;14.66;59.42
11395;BME280;5753;54.402;10.220;2023-02-21T08:25:19;101401.59;;;14.28;61.13
11395;BME280;5753;54.402;10.220;2023-02-21T08:27:45;101401.44;;;14.16;60.53
11395;BME280;5753;54.402;10.220;2023-02-21T08:30:15;101417.56;;;14.71;60.28
11395;BME280;5753;54.402;10.220;2023-02-21T08:32:41;101419.81;;;14.36;59.57
11395;BME280;5753;54.402;10.220;2023-02-21T08:35:12;101426.38;;;13.34;62.80
11395;BME280;5753;54.402;10.220;2023-02-21T08:37:38;101432.66;;;15.19;57.80
11395;BME280;5753;54.402;10.220;2023-02-21T08:40:10;101430.41;;;14.59;59.38
11395;BME280;5753;54.402;10.220;2023-02-21T08:42:37;101439.41;;;15.00;57.40
11395;BME280;5753;54.402;10.220;2023-02-21T08:45:03;101436.88;;;15.09;58.36
11395;BME280;5753;54.402;10.220;2023-02-21T08:47:29;101450.72;;;15.08;58.73
11395;BME280;5753;54.402;10.220;2023-02-21T08:49:55;101460.31;;;12.99;63.05
11395;BME280;5753;54.402;10.220;2023-02-21T08:52:21;101448.78;;;13.98;61.26
11395;BME280;5753;54.402;10.220;2023-02-21T08:54:48;101451.75;;;14.30;60.11
11395;BME280;5753;54.402;10.220;2023-02-21T08:57:14;101454.09;;;14.09;59.90
11395;BME280;5753;54.402;10.220;2023-02-21T08:59:41;101455.31;;;14.41;59.69
11395;BME280;5753;54.402;10.220;2023-02-21T09:04:41;101459.03;;;13.89;60.94
11395;BME280;5753;54.402;10.220;2023-02-21T09:07:08;101455.88;;;14.16;61.02
11395;BME280;5753;54.402;10.220;2023-02-21T09:09:37;101450.94;;;14.36;60.22
11395;BME280;5753;54.402;10.220;2023-02-21T09:12:03;101444.84;;;14.32;59.61
11395;BME280;5753;54.402;10.220;2023-02-21T09:14:34;101442.19;;;14.25;59.31
11395;BME280;5753;54.402;10.220;2023-02-21T09:17:01;101444.31;;;14.65;59.07
11395;BME280;5753;54.402;10.220;2023-02-21T09:19:27;101446.59;;;15.36;57.01
11395;BME280;5753;54.402;10.220;2023-02-21T09:21:53;101463.66;;;14.14;58.89
11395;BME280;5753;54.402;10.220;2023-02-21T09:24:24;101459.38;;;14.18;58.50
11395;BME280;5753;54.402;10.220;2023-02-21T09:26:51;101467.66;;;13.88;58.70
11395;BME280;5753;54.402;10.220;2023-02-21T09:29:27;101464.66;;;14.26;58.46
11395;BME280;5753;54.402;10.220;2023-02-21T09:31:54;101468.66;;;14.78;56.44
11395;BME280;5753;54.402;10.220;2023-02-21T09:34:20;101466.41;;;15.19;55.46
11395;BME280;5753;54.402;10.220;2023-02-21T09:36:47;101457.22;;;14.58;57.86
11395;BME280;5753;54.402;10.220;2023-02-21T09:39:16;101465.22;;;14.79;56.27
11395;BME280;5753;54.402;10.220;2023-02-21T09:41:43;101452.88;;;15.66;54.17
11395;BME280;5753;54.402;10.220;2023-02-21T09:44:14;101475.16;;;13.68;58.40
11395;BME280;5753;54.402;10.220;2023-02-21T09:46:50;101463.03;;;15.34;54.98
11395;BME280;5753;54.402;10.220;2023-02-21T09:49:27;101467.41;;;15.41;55.89
11395;BME280;5753;54.402;10.220;2023-02-21T09:51:56;101461.28;;;15.33;54.74
11395;BME280;5753;54.402;10.220;2023-02-21T09:56:53;101470.44;;;14.82;56.41
11395;BME280;5753;54.402;10.220;2023-02-21T09:59:22;101466.59;;;15.51;54.38
11395;BME280;5753;54.402;10.220;2023-02-21T10:07:49;101471.91;;;18.30;48.66
11395;BME280;5753;54.402;10.220;2023-02-21T10:10:44;101485.22;;;17.43;49.01
11395;BME280;5753;54.402;10.220;2023-02-21T10:14:14;101486.91;;;16.37;52.92
11395;BME280;5753;54.402;10.220;2023-02-21T10:16:20;101487.03;;;17.08;50.87
11395;BME280;5753;54.402;10.220;2023-02-21T10:19:06;101490.50;;;16.78;51.43
11395;BME280;5753;54.402;10.220;2023-02-21T10:21:43;101492.53;;;15.45;55.00
11395;BME280;5753;54.402;10.220;2023-02-21T10:24:15;101491.09;;;15.90;53.08
11395;BME280;5753;54.402;10.220;2023-02-21T10:26:58;101499.69;;;15.77;54.09
11395;BME280;5753;54.402;10.220;2023-02-21T10:29:43;101497.44;;;16.71;51.16
11395;BME280;5753;54.402;10.220;2023-02-21T10:32:10;101499.91;;;17.99;49.13
11395;BME280;5753;54.402;10.220;2023-02-21T10:34:37;101498.22;;;16.49;50.88
11395;BME280;5753;54.402;10.220;2023-02-21T10:42:42;101501.78;;;16.90;49.40
11395;BME280;5753;54.402;10.220;2023-02-21T10:45:11;101498.31;;;16.82;49.35
11395;BME280;5753;54.402;10.220;2023-02-21T10:48:00;101504.03;;;15.81;51.84
11395;BME280;5753;54.402;10.220;2023-02-21T10:53:07;101509.38;;;16.11;51.12
11395;BME280;5753;54.402;10.220;2023-02-21T10:55:34;101503.34;;;16.21;50.62
11395;BME280;5753;54.402;10.220;2023-02-21T10:58:09;101511.13;;;16.14;51.84
11395;BME280;5753;54.402;10.220;2023-02-21T11:00:44;101516.53;;;16.82;49.06
11395;BME280;5753;54.402;10.220;2023-02-21T11:05:53;101524.34;;;17.40;48.17
11395;BME280;5753;54.402;10.220;2023-02-21T11:08:41;101513.84;;;16.55;48.66
11395;BME280;5753;54.402;10.220;2023-02-21T11:11:08;101525.97;;;16.47;49.54
11395;BME280;5753;54.402;10.220;2023-02-21T11:13:36;101529.41;;;16.36;50.24
11395;BME280;5753;54.402;10.220;2023-02-21T11:16:15;101520.88;;;17.26;48.30
11395;BME280;5753;54.402;10.220;2023-02-21T11:18:42;101531.84;;;14.83;52.51
11395;BME280;5753;54.402;10.220;2023-02-21T11:21:14;101535.56;;;15.12;52.31
11395;BME280;5753;54.402;10.220;2023-02-21T11:24:07;101523.56;;;15.24;52.30
11395;BME280;5753;54.402;10.220;2023-02-21T11:26:48;101526.53;;;15.76;51.46
11395;BME280;5753;54.402;10.220;2023-02-21T11:29:19;101532.25;;;15.29;51.82
11395;BME280;5753;54.402;10.220;2023-02-21T11:31:48;101534.44;;;15.94;51.04
11395;BME280;5753;54.402;10.220;2023-02-21T11:34:15;101534.75;;;16.88;48.91
11395;BME280;5753;54.402;10.220;2023-02-21T11:36:43;101543.47;;;17.30;48.19
11395;BME280;5753;54.402;10.220;2023-02-21T11:39:22;101547.75;;;16.68;47.94
11395;BME280;5753;54.402;10.220;2023-02-21T11:42:01;101537.22;;;16.35;49.00
11395;BME280;5753;54.402;10.220;2023-02-21T11:44:35;101536.75;;;15.56;50.41
11395;BME280;5753;54.402;10.220;2023-02-21T11:47:16;101531.16;;;16.37;49.18
11395;BME280;5753;54.402;10.220;2023-02-21T11:49:55;101539.53;;;15.76;49.98
11395;BME280;5753;54.402;10.220;2023-02-21T11:52:36;101537.22;;;16.40;49.32
11395;BME280;5753;54.402;10.220;2023-02-21T11:55:07;101543.97;;;15.93;49.27
11395;BME280;5753;54.402;10.220;2023-02-21T11:57:43;101549.19;;;16.01;49.90
11395;BME280;5753;54.402;10.220;2023-02-21T12:06:03;101549.81;;;15.60;48.94
11395;BME280;5753;54.402;10.220;2023-02-21T12:17:09;101557.06;;;16.10;48.12
11395;BME280;5753;54.402;10.220;2023-02-21T12:19:44;101551.81;;;16.04;47.54
11395;BME280;5753;54.402;10.220;2023-02-21T12:49:48;101548.47;;;16.26;49.07
11395;BME280;5753;54.402;10.220;2023-02-21T12:57:51;101545.22;;;17.13;48.03
11395;BME280;5753;54.402;10.220;2023-02-21T13:00:25;101537.00;;;19.71;43.98
11395;BME280;5753;54.402;10.220;2023-02-21T13:05:53;101543.00;;;19.79;41.59
11395;BME280;5753;54.402;10.220;2023-02-21T13:08:30;101542.69;;;19.19;42.03
11395;BME280;5753;54.402;10.220;2023-02-21T13:13:31;101549.38;;;18.20;43.80
11395;BME280;5753;54.402;10.220;2023-02-21T13:16:02;101557.34;;;17.69;45.29
11395;BME280;5753;54.402;10.220;2023-02-21T13:18:39;101550.31;;;18.07;44.84
11395;BME280;5753;54.402;10.220;2023-02-21T13:21:41;101543.47;;;17.51;45.87
11395;BME280;5753;54.402;10.220;2023-02-21T13:32:55;101539.09;;;16.91;47.45
11395;BME280;5753;54.402;10.220;2023-02-21T13:35:34;101552.03;;;16.59;47.04
11395;BME280;5753;54.402;10.220;2023-02-21T13:38:03;101539.09;;;17.56;46.63
11395;BME280;5753;54.402;10.220;2023-02-21T13:40:39;101547.81;;;17.22;46.07
11395;BME280;5753;54.402;10.220;2023-02-21T13:43:21;101538.22;;;17.73;45.60
11395;BME280;5753;54.402;10.220;2023-02-21T13:45:48;101542.78;;;19.10;43.37
11395;BME280;5753;54.402;10.220;2023-02-21T13:48:28;101548.06;;;19.01;42.00
11395;BME280;5753;54.402;10.220;2023-02-21T13:50:57;101553.00;;;17.00;44.08
11395;BME280;5753;54.402;10.220;2023-02-21T13:54:01;101538.06;;;18.20;42.80
11395;BME280;5753;54.402;10.220;2023-02-21T13:56:19;101543.44;;;16.80;45.09
11395;BME280;5753;54.402;10.220;2023-02-21T14:02:22;101539.69;;;18.39;43.90
11395;BME280;5753;54.402;10.220;2023-02-21T14:05:03;101552.13;;;16.98;46.10
11395;BME280;5753;54.402;10.220;2023-02-21T14:07:47;101548.69;;;17.15;46.14
11395;BME280;5753;54.402;10.220;2023-02-21T14:10:32;101539.97;;;16.88;47.25
11395;BME280;5753;54.402;10.220;2023-02-21T14:13:15;101544.31;;;17.02;47.36
11395;BME280;5753;54.402;10.220;2023-02-21T14:15:45;101557.09;;;18.42;43.67
11395;BME280;5753;54.402;10.220;2023-02-21T14:18:29;101562.28;;;16.16;47.27
11395;BME280;5753;54.402;10.220;2023-02-21T14:20:57;101561.13;;;15.62;48.73
11395;BME280;5753;54.402;10.220;2023-02-21T14:23:38;101565.78;;;16.21;47.79
11395;BME280;5753;54.402;10.220;2023-02-21T14:26:05;101552.13;;;17.78;44.69
11395;BME280;5753;54.402;10.220;2023-02-21T14:34:11;101545.09;;;18.04;44.18
11395;BME280;5753;54.402;10.220;2023-02-21T14:36:39;101551.41;;;19.18;42.03
11395;BME280;5753;54.402;10.220;2023-02-21T14:39:07;101550.06;;;18.59;42.68
11395;BME280;5753;54.402;10.220;2023-02-21T14:44:29;101544.81;;;18.61;43.17
11395;BME280;5753;54.402;10.220;2023-02-21T14:53:08;101552.19;;;21.40;36.94
11395;BME280;5753;54.402;10.220;2023-02-21T15:01:36;101546.38;;;21.18;36.94
11395;BME280;5753;54.402;10.220;2023-02-21T15:07:19;101557.19;;;18.23;41.04
11395;BME280;5753;54.402;10.220;2023-02-21T15:12:35;101557.25;;;18.05;41.50
11395;BME280;5753;54.402;10.220;2023-02-21T15:15:04;101559.56;;;18.75;40.44
11395;BME280;5753;54.402;10.220;2023-02-21T15:17:32;101561.22;;;18.87;40.21
11395;BME280;5753;54.402;10.220;2023-02-21T15:20:14;101552.88;;;20.29;38.00
11395;BME280;5753;54.402;10.220;2023-02-21T15:22:41;101559.38;;;19.99;38.48
11395;BME280;5753;54.402;10.220;2023-02-21T15:27:53;101546.75;;;23.15;34.36
11395;BME280;5753;54.402;10.220;2023-02-21T15:36:02;101547.59;;;19.59;38.49
11395;BME280;5753;54.402;10.220;2023-02-21T15:41:28;101559.84;;;18.11;42.31
11395;BME280;5753;54.402;10.220;2023-02-21T15:46:41;101563.41;;;17.84;43.36
11395;BME280;5753;54.402;10.220;2023-02-21T15:49:20;101566.91;;;17.30;44.26
11395;BME280;5753;54.402;10.220;2023-02-21T15:51:47;101565.00;;;18.25;42.95
11395;BME280;5753;54.402;10.220;2023-02-21T15:56:44;101574.25;;;18.95;41.51
11395;BME280;5753;54.402;10.220;2023-02-21T15:59:17;101573.84;;;17.77;42.62
11395;BME280;5753;54.402;10.220;2023-02-21T16:01:44;101571.19;;;16.68;45.40
11395;BME280;5753;54.402;10.220;2023-02-21T16:04:19;101571.25;;;17.07;44.52